sensor_id;sensor_type;location;lat;lon;timestamp;pressure;altitude;pressure_sealevel;temperature;humidity
41140;BME280;26881;48.784;9.192;2022-08-05T00:02:18;98139.38;;;26.52;47.60
41140;BME280;26881;48.784;9.192;2022-08-05T00:07:41;98134.03;;;26.52;47.56
41140;BME280;26881;48.784;9.192;2022-08-05T00:13:21;98141.59;;;26.28;49.00
41140;BME280;26881;48.784;9.192;2022-08-05T00:19:00;98145.72;;;26.24;48.70
41140;BME280;26881;48.784;9.192;2022-08-05T00:24:22;98142.38;;;26.09;49.31
41140;BME280;26881;48.784;9.192;2022-08-05T00:29:51;98143.78;;;25.98;49.33
41140;BME280;26881;48.784;9.192;2022-08-05T00:35:16;98147.53;;;26.04;49.44
41140;BME280;26881;48.784;9.192;2022-08-05T00:40:52;98158.84;;;26.06;48.58
41140;BME280;26881;48.784;9.192;2022-08-05T00:46:14;98158.09;;;25.84;48.49
41140;BME280;26881;48.784;9.192;2022-08-05T00:51:36;98182.69;;;25.88;48.46
41140;BME280;26881;48.784;9.192;2022-08-05T00:57:12;98194.97;;;25.82;48.78
41140;BME280;26881;48.784;9.192;2022-08-05T01:02:34;98211.22;;;25.74;49.36
41140;BME280;26881;48.784;9.192;2022-08-05T01:07:56;98228.25;;;25.94;46.71
41140;BME280;26881;48.784;9.192;2022-08-05T01:13:57;98218.09;;;26.24;43.42
41140;BME280;26881;48.784;9.192;2022-08-05T01:25:43;98237.13;;;26.30;43.06
41140;BME280;26881;48.784;9.192;2022-08-05T01:31:57;98237.13;;;26.30;43.75
41140;BME280;26881;48.784;9.192;2022-08-05T01:37:39;98253.13;;;26.16;44.90
41140;BME280;26881;48.784;9.192;2022-08-05T01:43:06;98271.69;;;26.18;45.46
41140;BME280;26881;48.784;9.192;2022-08-05T01:48:44;98278.84;;;26.11;45.97
41140;BME280;26881;48.784;9.192;2022-08-05T01:54:12;98285.84;;;26.05;46.45
41140;BME280;26881;48.784;9.192;2022-08-05T01:59:39;98284.78;;;25.99;47.08
41140;BME280;26881;48.784;9.192;2022-08-05T02:05:10;98277.97;;;25.97;47.18
41140;BME280;26881;48.784;9.192;2022-08-05T02:10:48;98273.94;;;25.86;48.15
41140;BME280;26881;48.784;9.192;2022-08-05T02:16:26;98265.44;;;25.82;48.28
41140;BME280;26881;48.784;9.192;2022-08-05T02:21:55;98264.97;;;25.72;48.77
41140;BME280;26881;48.784;9.192;2022-08-05T02:27:20;98270.47;;;25.64;48.83
41140;BME280;26881;48.784;9.192;2022-08-05T02:33:03;98284.25;;;25.61;49.20
41140;BME280;26881;48.784;9.192;2022-08-05T02:38:28;98289.72;;;25.46;50.00
41140;BME280;26881;48.784;9.192;2022-08-05T02:43:57;98286.00;;;25.47;50.01
41140;BME280;26881;48.784;9.192;2022-08-05T02:49:33;98293.16;;;25.40;50.46
41140;BME280;26881;48.784;9.192;2022-08-05T02:54:59;98291.22;;;25.34;50.44
41140;BME280;26881;48.784;9.192;2022-08-05T03:00:27;98284.56;;;25.23;51.00
41140;BME280;26881;48.784;9.192;2022-08-05T03:05:50;98289.34;;;25.13;51.51
41140;BME280;26881;48.784;9.192;2022-08-05T03:11:33;98295.72;;;25.12;51.83
41140;BME280;26881;48.784;9.192;2022-08-05T03:17:14;98312.03;;;25.17;51.75
41140;BME280;26881;48.784;9.192;2022-08-05T03:22:36;98310.03;;;25.19;52.15
41140;BME280;26881;48.784;9.192;2022-08-05T03:28:06;98312.53;;;25.20;51.86
41140;BME280;26881;48.784;9.192;2022-08-05T03:33:30;98325.00;;;25.13;52.43
41140;BME280;26881;48.784;9.192;2022-08-05T03:39:11;98326.31;;;25.02;52.59
41140;BME280;26881;48.784;9.192;2022-08-05T03:44:47;98313.81;;;24.88;52.82
41140;BME280;26881;48.784;9.192;2022-08-05T03:50:12;98319.63;;;24.77;53.44
41140;BME280;26881;48.784;9.192;2022-08-05T03:55:39;98295.66;;;24.84;53.10
41140;BME280;26881;48.784;9.192;2022-08-05T04:01:24;98290.06;;;25.00;52.78
41140;BME280;26881;48.784;9.192;2022-08-05T04:06:53;98295.38;;;24.78;54.36
41140;BME280;26881;48.784;9.192;2022-08-05T04:12:16;98299.09;;;24.63;54.04
41140;BME280;26881;48.784;9.192;2022-08-05T04:17:45;98308.25;;;24.53;55.32
41140;BME280;26881;48.784;9.192;2022-08-05T04:23:18;98309.31;;;24.59;55.07
41140;BME280;26881;48.784;9.192;2022-08-05T04:29:00;98333.88;;;24.48;57.45
41140;BME280;26881;48.784;9.192;2022-08-05T04:34:28;98384.72;;;24.25;59.04
41140;BME280;26881;48.784;9.192;2022-08-05T04:39:55;98399.47;;;24.21;58.17
41140;BME280;26881;48.784;9.192;2022-08-05T04:45:17;98422.69;;;24.20;57.61
41140;BME280;26881;48.784;9.192;2022-08-05T04:50:59;98428.13;;;24.27;56.96
41140;BME280;26881;48.784;9.192;2022-08-05T04:56:30;98444.50;;;24.24;57.37
41140;BME280;26881;48.784;9.192;2022-08-05T05:01:57;98443.72;;;24.38;56.26
41140;BME280;26881;48.784;9.192;2022-08-05T05:07:39;98509.47;;;24.47;57.08
41140;BME280;26881;48.784;9.192;2022-08-05T05:13:14;98515.69;;;24.63;56.40
41140;BME280;26881;48.784;9.192;2022-08-05T05:18:37;98513.78;;;24.71;55.93
41140;BME280;26881;48.784;9.192;2022-08-05T05:23:59;98521.50;;;24.66;56.91
41140;BME280;26881;48.784;9.192;2022-08-05T05:29:29;98527.59;;;24.75;55.97
41140;BME280;26881;48.784;9.192;2022-08-05T05:35:11;98541.25;;;24.80;55.87
41140;BME280;26881;48.784;9.192;2022-08-05T05:40:41;98542.75;;;24.83;55.93
41140;BME280;26881;48.784;9.192;2022-08-05T05:46:12;98555.03;;;24.92;55.58
41140;BME280;26881;48.784;9.192;2022-08-05T05:51:39;98559.81;;;24.96;55.41
41140;BME280;26881;48.784;9.192;2022-08-05T05:57:10;98586.03;;;25.01;55.26
41140;BME280;26881;48.784;9.192;2022-08-05T06:02:44;98581.53;;;25.01;55.86
41140;BME280;26881;48.784;9.192;2022-08-05T06:08:08;98583.00;;;25.04;55.56
41140;BME280;26881;48.784;9.192;2022-08-05T06:13:31;98595.19;;;25.07;54.76
41140;BME280;26881;48.784;9.192;2022-08-05T06:19:11;98587.06;;;25.15;54.38
41140;BME280;26881;48.784;9.192;2022-08-05T06:24:46;98570.19;;;25.14;54.78
41140;BME280;26881;48.784;9.192;2022-08-05T06:30:09;98569.19;;;25.15;53.37
41140;BME280;26881;48.784;9.192;2022-08-05T06:35:41;98565.34;;;25.18;54.44
41140;BME280;26881;48.784;9.192;2022-08-05T06:41:23;98561.69;;;25.11;54.71
41140;BME280;26881;48.784;9.192;2022-08-05T06:46:45;98555.28;;;25.20;53.46
41140;BME280;26881;48.784;9.192;2022-08-05T06:52:11;98550.47;;;25.30;52.68
41140;BME280;26881;48.784;9.192;2022-08-05T06:57:53;98558.88;;;25.27;53.55
41140;BME280;26881;48.784;9.192;2022-08-05T07:03:35;98566.78;;;25.35;52.93
41140;BME280;26881;48.784;9.192;2022-08-05T07:08:57;98580.19;;;25.35;53.52
41140;BME280;26881;48.784;9.192;2022-08-05T07:14:20;98597.06;;;25.36;52.98
41140;BME280;26881;48.784;9.192;2022-08-05T07:20:01;98598.75;;;25.37;52.76
41140;BME280;26881;48.784;9.192;2022-08-05T07:25:42;98607.53;;;25.46;52.24
41140;BME280;26881;48.784;9.192;2022-08-05T07:31:17;98617.22;;;25.47;52.67
41140;BME280;26881;48.784;9.192;2022-08-05T07:36:59;98611.19;;;25.44;52.27
41140;BME280;26881;48.784;9.192;2022-08-05T07:42:20;98615.91;;;25.57;51.28
41140;BME280;26881;48.784;9.192;2022-08-05T07:47:54;98603.41;;;25.94;50.28
41140;BME280;26881;48.784;9.192;2022-08-05T07:53:16;98600.03;;;26.65;48.23
41140;BME280;26881;48.784;9.192;2022-08-05T07:58:40;98602.88;;;26.85;47.23
41140;BME280;26881;48.784;9.192;2022-08-05T08:04:19;98594.53;;;26.73;47.13
41140;BME280;26881;48.784;9.192;2022-08-05T08:09:58;98599.50;;;26.55;46.01
41140;BME280;26881;48.784;9.192;2022-08-05T08:15:22;98601.22;;;26.41;45.94
41140;BME280;26881;48.784;9.192;2022-08-05T08:21:04;98596.16;;;26.31;45.87
41140;BME280;26881;48.784;9.192;2022-08-05T08:26:36;98609.56;;;26.31;44.95
41140;BME280;26881;48.784;9.192;2022-08-05T08:32:02;98602.34;;;26.32;43.95
41140;BME280;26881;48.784;9.192;2022-08-05T08:37:24;98598.50;;;26.34;43.91
41140;BME280;26881;48.784;9.192;2022-08-05T08:42:50;98589.41;;;26.35;44.43
41140;BME280;26881;48.784;9.192;2022-08-05T08:48:14;98571.47;;;26.36;44.48
41140;BME280;26881;48.784;9.192;2022-08-05T08:53:56;98567.00;;;26.43;43.46
41140;BME280;26881;48.784;9.192;2022-08-05T08:59:21;98561.06;;;26.47;42.82
41140;BME280;26881;48.784;9.192;2022-08-05T09:04:48;98552.00;;;26.48;43.65
41140;BME280;26881;48.784;9.192;2022-08-05T09:10:30;98551.69;;;26.58;42.27
41140;BME280;26881;48.784;9.192;2022-08-05T09:15:52;98541.59;;;26.60;42.84
41140;BME280;26881;48.784;9.192;2022-08-05T09:21:15;98523.69;;;26.67;42.05
41140;BME280;26881;48.784;9.192;2022-08-05T09:26:57;98520.84;;;26.76;41.52
41140;BME280;26881;48.784;9.192;2022-08-05T09:32:32;98512.44;;;26.79;41.24
41140;BME280;26881;48.784;9.192;2022-08-05T09:38:05;98510.63;;;26.86;41.06
41140;BME280;26881;48.784;9.192;2022-08-05T09:43:39;98494.53;;;26.86;41.60
41140;BME280;26881;48.784;9.192;2022-08-05T09:49:02;98491.63;;;26.87;41.20
41140;BME280;26881;48.784;9.192;2022-08-05T09:54:50;98492.06;;;26.91;40.95
41140;BME280;26881;48.784;9.192;2022-08-05T10:00:15;98490.88;;;27.00;41.43
41140;BME280;26881;48.784;9.192;2022-08-05T10:05:37;98497.13;;;27.07;41.39
41140;BME280;26881;48.784;9.192;2022-08-05T10:11:02;98497.22;;;27.21;41.39
41140;BME280;26881;48.784;9.192;2022-08-05T10:16:34;98486.06;;;27.24;40.41
41140;BME280;26881;48.784;9.192;2022-08-05T10:22:13;98479.69;;;27.31;40.67
41140;BME280;26881;48.784;9.192;2022-08-05T10:27:50;98474.13;;;27.33;41.30
41140;BME280;26881;48.784;9.192;2022-08-05T10:33:34;98466.53;;;27.50;40.20
41140;BME280;26881;48.784;9.192;2022-08-05T10:39:04;98471.31;;;27.54;38.99
41140;BME280;26881;48.784;9.192;2022-08-05T10:44:36;98473.41;;;27.66;38.10
41140;BME280;26881;48.784;9.192;2022-08-05T10:50:04;98469.28;;;27.70;38.15
41140;BME280;26881;48.784;9.192;2022-08-05T10:56:08;98460.19;;;27.78;38.83
41140;BME280;26881;48.784;9.192;2022-08-05T11:01:46;98464.38;;;27.87;38.52
41140;BME280;26881;48.784;9.192;2022-08-05T11:07:25;98461.06;;;27.91;38.16
41140;BME280;26881;48.784;9.192;2022-08-05T11:12:54;98460.66;;;28.01;38.08
41140;BME280;26881;48.784;9.192;2022-08-05T11:18:28;98463.16;;;28.23;37.95
41140;BME280;26881;48.784;9.192;2022-08-05T11:23:54;98477.22;;;28.38;37.01
41140;BME280;26881;48.784;9.192;2022-08-05T11:29:34;98473.50;;;28.46;37.04
41140;BME280;26881;48.784;9.192;2022-08-05T11:34:57;98465.06;;;28.49;37.03
41140;BME280;26881;48.784;9.192;2022-08-05T11:40:19;98461.72;;;28.60;36.65
41140;BME280;26881;48.784;9.192;2022-08-05T11:45:46;98468.97;;;28.60;36.61
41140;BME280;26881;48.784;9.192;2022-08-05T11:51:29;98462.31;;;28.75;36.50
41140;BME280;26881;48.784;9.192;2022-08-05T11:57:10;98456.66;;;28.97;36.02
41140;BME280;26881;48.784;9.192;2022-08-05T12:02:46;98442.41;;;28.83;35.94
41140;BME280;26881;48.784;9.192;2022-08-05T12:08:08;98447.16;;;28.88;35.91
41140;BME280;26881;48.784;9.192;2022-08-05T12:13:32;98446.97;;;28.89;36.08
41140;BME280;26881;48.784;9.192;2022-08-05T12:19:10;98450.88;;;29.00;36.85
41140;BME280;26881;48.784;9.192;2022-08-05T12:24:53;98438.25;;;28.87;37.14
41140;BME280;26881;48.784;9.192;2022-08-05T12:30:16;98441.19;;;28.79;37.07
41140;BME280;26881;48.784;9.192;2022-08-05T12:35:38;98443.91;;;28.72;37.36
41140;BME280;26881;48.784;9.192;2022-08-05T12:41:10;98438.72;;;28.71;37.67
41140;BME280;26881;48.784;9.192;2022-08-05T12:46:35;98436.84;;;28.65;37.77
41140;BME280;26881;48.784;9.192;2022-08-05T12:51:58;98439.16;;;28.61;38.21
41140;BME280;26881;48.784;9.192;2022-08-05T12:57:40;98425.69;;;28.68;38.22
41140;BME280;26881;48.784;9.192;2022-08-05T13:03:23;98419.03;;;28.77;37.85
41140;BME280;26881;48.784;9.192;2022-08-05T13:08:52;98422.13;;;28.81;37.37
41140;BME280;26881;48.784;9.192;2022-08-05T13:14:20;98424.63;;;28.82;37.48
41140;BME280;26881;48.784;9.192;2022-08-05T13:20:07;98410.69;;;28.98;37.62
41140;BME280;26881;48.784;9.192;2022-08-05T13:25:32;98415.22;;;29.05;37.49
41140;BME280;26881;48.784;9.192;2022-08-05T13:31:15;98412.13;;;29.08;37.29
41140;BME280;26881;48.784;9.192;2022-08-05T13:36:54;98406.31;;;29.04;37.28
41140;BME280;26881;48.784;9.192;2022-08-05T13:42:16;98395.97;;;29.08;37.08
41140;BME280;26881;48.784;9.192;2022-08-05T13:47:39;98390.28;;;29.23;37.00
41140;BME280;26881;48.784;9.192;2022-08-05T13:53:20;98389.34;;;29.10;37.23
41140;BME280;26881;48.784;9.192;2022-08-05T13:58:42;98380.88;;;29.00;37.20
41140;BME280;26881;48.784;9.192;2022-08-05T14:04:13;98378.56;;;28.97;36.52
41140;BME280;26881;48.784;9.192;2022-08-05T14:09:54;98369.81;;;29.22;36.20
41140;BME280;26881;48.784;9.192;2022-08-05T14:15:16;98370.06;;;29.45;36.66
41140;BME280;26881;48.784;9.192;2022-08-05T14:20:58;98379.44;;;29.36;36.35
41140;BME280;26881;48.784;9.192;2022-08-05T14:26:40;98379.50;;;29.29;35.93
41140;BME280;26881;48.784;9.192;2022-08-05T14:32:22;98375.66;;;29.05;36.72
41140;BME280;26881;48.784;9.192;2022-08-05T14:37:48;98392.84;;;29.04;36.78
41140;BME280;26881;48.784;9.192;2022-08-05T14:43:16;98394.13;;;28.95;37.64
41140;BME280;26881;48.784;9.192;2022-08-05T14:48:39;98404.69;;;28.90;37.57
41140;BME280;26881;48.784;9.192;2022-08-05T14:54:02;98386.94;;;28.82;37.80
41140;BME280;26881;48.784;9.192;2022-08-05T14:59:43;98403.94;;;28.69;39.29
41140;BME280;26881;48.784;9.192;2022-08-05T15:05:06;98407.25;;;28.65;39.60
41140;BME280;26881;48.784;9.192;2022-08-05T15:10:34;98423.84;;;28.55;40.42
41140;BME280;26881;48.784;9.192;2022-08-05T15:15:56;98484.06;;;28.41;41.50
41140;BME280;26881;48.784;9.192;2022-08-05T15:21:17;98485.06;;;27.86;60.03
41140;BME280;26881;48.784;9.192;2022-08-05T15:26:41;98489.38;;;26.91;62.11
41140;BME280;26881;48.784;9.192;2022-08-05T15:32:04;98497.69;;;26.68;62.82
41140;BME280;26881;48.784;9.192;2022-08-05T15:37:26;98491.06;;;26.42;66.51
41140;BME280;26881;48.784;9.192;2022-08-05T15:43:08;98475.66;;;26.73;59.27
41140;BME280;26881;48.784;9.192;2022-08-05T15:48:41;98485.50;;;26.65;60.91
41140;BME280;26881;48.784;9.192;2022-08-05T15:54:15;98492.06;;;26.35;59.21
41140;BME280;26881;48.784;9.192;2022-08-05T15:59:37;98499.06;;;26.57;58.25
41140;BME280;26881;48.784;9.192;2022-08-05T16:04:59;98496.41;;;26.64;59.59
41140;BME280;26881;48.784;9.192;2022-08-05T16:10:21;98489.69;;;26.75;54.90
41140;BME280;26881;48.784;9.192;2022-08-05T16:15:46;98504.53;;;26.70;57.46
41140;BME280;26881;48.784;9.192;2022-08-05T16:21:08;98509.25;;;26.68;56.01
41140;BME280;26881;48.784;9.192;2022-08-05T16:26:29;98521.72;;;26.76;51.83
41140;BME280;26881;48.784;9.192;2022-08-05T16:31:52;98534.84;;;26.64;57.93
41140;BME280;26881;48.784;9.192;2022-08-05T16:37:18;98543.50;;;26.45;55.93
41140;BME280;26881;48.784;9.192;2022-08-05T16:42:59;98545.41;;;26.51;54.33
41140;BME280;26881;48.784;9.192;2022-08-05T16:48:23;98539.50;;;26.56;51.57
41140;BME280;26881;48.784;9.192;2022-08-05T16:53:56;98543.38;;;26.53;55.64
41140;BME280;26881;48.784;9.192;2022-08-05T16:59:24;98544.78;;;26.49;51.35
41140;BME280;26881;48.784;9.192;2022-08-05T17:04:51;98560.88;;;26.49;52.83
41140;BME280;26881;48.784;9.192;2022-08-05T17:10:13;98560.41;;;26.45;50.47
41140;BME280;26881;48.784;9.192;2022-08-05T17:15:35;98566.41;;;26.47;51.42
41140;BME280;26881;48.784;9.192;2022-08-05T17:21:11;98565.34;;;26.42;54.31
41140;BME280;26881;48.784;9.192;2022-08-05T17:26:36;98580.66;;;26.26;51.17
41140;BME280;26881;48.784;9.192;2022-08-05T17:32:01;98568.72;;;26.29;50.77
41140;BME280;26881;48.784;9.192;2022-08-05T17:37:23;98588.59;;;26.13;53.93
41140;BME280;26881;48.784;9.192;2022-08-05T17:43:02;98591.63;;;26.10;53.19
41140;BME280;26881;48.784;9.192;2022-08-05T17:48:30;98590.97;;;26.08;51.12
41140;BME280;26881;48.784;9.192;2022-08-05T17:53:52;98605.16;;;26.02;51.44
41140;BME280;26881;48.784;9.192;2022-08-05T17:59:16;98622.63;;;25.98;51.54
41140;BME280;26881;48.784;9.192;2022-08-05T18:04:43;98623.09;;;25.86;53.57
41140;BME280;26881;48.784;9.192;2022-08-05T18:10:15;98636.03;;;25.83;53.74
41140;BME280;26881;48.784;9.192;2022-08-05T18:15:41;98651.91;;;25.84;55.29
41140;BME280;26881;48.784;9.192;2022-08-05T18:21:05;98662.47;;;25.71;56.44
41140;BME280;26881;48.784;9.192;2022-08-05T18:26:40;98669.94;;;25.61;59.28
41140;BME280;26881;48.784;9.192;2022-08-05T18:32:04;98682.13;;;25.49;60.42
41140;BME280;26881;48.784;9.192;2022-08-05T18:37:26;98697.41;;;25.25;58.56
41140;BME280;26881;48.784;9.192;2022-08-05T18:43:00;98706.09;;;25.27;58.99
41140;BME280;26881;48.784;9.192;2022-08-05T18:48:25;98727.44;;;25.12;60.31
41140;BME280;26881;48.784;9.192;2022-08-05T18:53:53;98739.03;;;25.05;59.69
41140;BME280;26881;48.784;9.192;2022-08-05T18:59:15;98747.25;;;25.03;60.52
41140;BME280;26881;48.784;9.192;2022-08-05T19:04:58;98763.16;;;24.96;60.23
41140;BME280;26881;48.784;9.192;2022-08-05T19:10:40;98758.25;;;24.85;59.06
41140;BME280;26881;48.784;9.192;2022-08-05T19:16:04;98764.78;;;24.83;59.73
41140;BME280;26881;48.784;9.192;2022-08-05T19:21:46;98764.31;;;24.79;59.51
41140;BME280;26881;48.784;9.192;2022-08-05T19:27:12;98777.19;;;24.52;60.80
41140;BME280;26881;48.784;9.192;2022-08-05T19:32:34;98789.16;;;24.56;60.34
41140;BME280;26881;48.784;9.192;2022-08-05T19:37:56;98802.22;;;24.51;59.87
41140;BME280;26881;48.784;9.192;2022-08-05T19:43:28;98811.91;;;24.44;58.62
41140;BME280;26881;48.784;9.192;2022-08-05T19:49:10;98822.31;;;24.39;58.48
41140;BME280;26881;48.784;9.192;2022-08-05T19:54:37;98824.84;;;24.32;57.68
41140;BME280;26881;48.784;9.192;2022-08-05T20:00:02;98828.69;;;24.30;57.19
41140;BME280;26881;48.784;9.192;2022-08-05T20:05:26;98847.41;;;24.22;57.86
41140;BME280;26881;48.784;9.192;2022-08-05T20:11:04;98861.00;;;24.04;58.76
41140;BME280;26881;48.784;9.192;2022-08-05T20:16:26;98869.66;;;23.56;62.16
41140;BME280;26881;48.784;9.192;2022-08-05T20:21:48;98889.31;;;23.23;68.22
41140;BME280;26881;48.784;9.192;2022-08-05T20:27:10;98873.69;;;22.93;68.18
41140;BME280;26881;48.784;9.192;2022-08-05T20:32:32;98886.63;;;22.72;67.52
41140;BME280;26881;48.784;9.192;2022-08-05T20:37:54;98887.84;;;22.43;69.78
41140;BME280;26881;48.784;9.192;2022-08-05T20:43:29;98906.97;;;22.39;71.96
41140;BME280;26881;48.784;9.192;2022-08-05T20:49:10;98918.00;;;22.44;71.47
41140;BME280;26881;48.784;9.192;2022-08-05T20:54:33;98916.16;;;22.44;71.60
41140;BME280;26881;48.784;9.192;2022-08-05T21:00:15;98915.28;;;22.36;70.78
41140;BME280;26881;48.784;9.192;2022-08-05T21:05:57;98929.81;;;22.41;69.70
41140;BME280;26881;48.784;9.192;2022-08-05T21:11:19;98937.78;;;22.41;70.47
41140;BME280;26881;48.784;9.192;2022-08-05T21:17:02;98949.75;;;22.37;70.06
41140;BME280;26881;48.784;9.192;2022-08-05T21:22:26;98960.88;;;22.33;70.66
41140;BME280;26881;48.784;9.192;2022-08-05T21:27:48;98975.91;;;22.34;70.30
41140;BME280;26881;48.784;9.192;2022-08-05T21:33:13;98989.50;;;22.30;69.31
41140;BME280;26881;48.784;9.192;2022-08-05T21:38:44;98996.19;;;22.17;71.14
41140;BME280;26881;48.784;9.192;2022-08-05T21:44:06;98997.66;;;22.11;70.22
41140;BME280;26881;48.784;9.192;2022-08-05T21:49:31;98985.41;;;22.18;68.51
41140;BME280;26881;48.784;9.192;2022-08-05T21:55:13;98989.00;;;22.27;67.69
41140;BME280;26881;48.784;9.192;2022-08-05T22:00:35;98995.78;;;22.21;68.24
41140;BME280;26881;48.784;9.192;2022-08-05T22:05:57;98992.03;;;22.32;66.94
41140;BME280;26881;48.784;9.192;2022-08-05T22:11:20;98991.19;;;22.32;67.30
41140;BME280;26881;48.784;9.192;2022-08-05T22:16:56;99009.59;;;22.43;67.32
41140;BME280;26881;48.784;9.192;2022-08-05T22:22:24;99035.22;;;22.36;63.97
41140;BME280;26881;48.784;9.192;2022-08-05T22:27:49;99040.00;;;22.32;62.79
41140;BME280;26881;48.784;9.192;2022-08-05T22:33:32;99051.72;;;22.39;55.81
41140;BME280;26881;48.784;9.192;2022-08-05T22:39:13;99055.16;;;22.32;56.86
41140;BME280;26881;48.784;9.192;2022-08-05T22:44:42;99066.66;;;22.32;54.00
41140;BME280;26881;48.784;9.192;2022-08-05T22:50:17;99076.06;;;22.08;56.21
41140;BME280;26881;48.784;9.192;2022-08-05T22:55:48;99083.38;;;22.06;54.57
41140;BME280;26881;48.784;9.192;2022-08-05T23:01:17;99095.03;;;22.05;53.00
41140;BME280;26881;48.784;9.192;2022-08-05T23:06:41;99099.03;;;22.09;52.42
41140;BME280;26881;48.784;9.192;2022-08-05T23:12:03;99102.09;;;22.15;53.34
41140;BME280;26881;48.784;9.192;2022-08-05T23:17:26;99101.50;;;22.03;51.39
41140;BME280;26881;48.784;9.192;2022-08-05T23:22:59;99113.63;;;21.87;52.64
41140;BME280;26881;48.784;9.192;2022-08-05T23:28:26;99119.19;;;21.94;53.20
41140;BME280;26881;48.784;9.192;2022-08-05T23:33:51;99125.59;;;22.01;52.63
41140;BME280;26881;48.784;9.192;2022-08-05T23:39:26;99131.06;;;22.00;52.63
41140;BME280;26881;48.784;9.192;2022-08-05T23:45:09;99134.03;;;21.97;53.49
41140;BME280;26881;48.784;9.192;2022-08-05T23:50:36;99129.34;;;22.08;52.46
41140;BME280;26881;48.784;9.192;2022-08-05T23:55:58;99126.50;;;21.92;52.31
